Time;durP1;ratioP1;P1;durP2;ratioP2;P2;SDS_P1;SDS_P2;PMS_P1;PMS_P2;Temp;Humidity;BMP_temperature;BMP_pressure;BME280_temperature;BME280_humidity;BME280_pressure;Samples;Min_cycle;Max_cycle;Signal;HPM_P1;HPM_P2
2023/12/10 00:01:05;;;;;;;24.08;3.83;;;8.50;99.90;;;;;;5071113;28;20522;-68
2023/12/10 00:03:30;;;;;;;24.65;4.80;;;8.50;99.90;;;;;;5055993;28;20074;-68
2023/12/10 00:05:56;;;;;;;26.58;5.55;;;8.50;99.90;;;;;;5070285;28;20060;-68
2023/12/10 00:08:21;;;;;;;24.88;5.43;;;8.50;99.90;;;;;;5050929;28;20043;-68
2023/12/10 00:10:47;;;;;;;27.35;5.30;;;8.50;99.90;;;;;;5066880;28;20049;-68
2023/12/10 00:13:13;;;;;;;20.70;4.68;;;8.50;99.90;;;;;;5065356;28;20029;-68
2023/12/10 00:15:39;;;;;;;30.42;5.97;;;8.50;99.90;;;;;;5065821;28;20039;-68
2023/12/10 00:18:05;;;;;;;23.02;4.95;;;8.50;99.90;;;;;;5060307;28;20166;-68
2023/12/10 00:20:31;;;;;;;23.45;4.45;;;8.50;99.90;;;;;;5062613;28;20192;-67
2023/12/10 00:22:57;;;;;;;24.15;4.55;;;8.60;99.90;;;;;;5051923;28;20486;-68
2023/12/10 00:25:25;;;;;;;25.48;5.00;;;8.50;99.90;;;;;;5070993;28;20077;-68
2023/12/10 00:27:51;;;;;;;25.02;4.38;;;8.50;99.90;;;;;;5050870;28;20135;-68
2023/12/10 00:30:17;;;;;;;25.25;5.65;;;8.50;99.90;;;;;;5055503;28;20050;-68
2023/12/10 00:32:43;;;;;;;21.10;3.92;;;8.50;99.90;;;;;;5050279;28;20043;-67
2023/12/10 00:35:09;;;;;;;24.52;4.50;;;8.50;99.90;;;;;;5051403;28;20059;-67
2023/12/10 00:37:35;;;;;;;22.92;5.05;;;8.60;99.90;;;;;;5067346;28;20036;-68
2023/12/10 00:40:00;;;;;;;21.80;3.72;;;8.60;99.90;;;;;;5051981;28;20458;-68
2023/12/10 00:42:26;;;;;;;19.40;3.92;;;8.70;99.90;;;;;;5050688;28;20054;-68
2023/12/10 00:44:52;;;;;;;16.80;3.38;;;8.70;99.90;;;;;;5053921;28;20090;-68
2023/12/10 00:47:18;;;;;;;16.52;3.80;;;8.70;99.90;;;;;;5076509;28;20063;-68
2023/12/10 00:49:43;;;;;;;18.67;4.15;;;8.70;99.90;;;;;;5067596;28;20058;-68
2023/12/10 00:52:09;;;;;;;14.38;2.58;;;8.70;99.90;;;;;;5053185;28;20156;-68
2023/12/10 00:54:35;;;;;;;17.08;3.63;;;8.70;99.90;;;;;;5071733;28;20072;-68
2023/12/10 00:57:01;;;;;;;22.02;3.50;;;8.70;99.90;;;;;;5072321;28;21176;-68
2023/12/10 00:59:26;;;;;;;17.92;3.10;;;8.70;99.90;;;;;;5069421;28;20040;-68
2023/12/10 01:01:55;;;;;;;18.08;2.95;;;8.60;99.90;;;;;;5053297;28;20140;-68
2023/12/10 01:04:22;;;;;;;17.25;3.45;;;8.50;99.90;;;;;;5072741;28;22023;-68
2023/12/10 01:06:48;;;;;;;14.10;3.03;;;8.50;99.90;;;;;;5070599;28;20401;-68
2023/12/10 01:09:17;;;;;;;17.40;3.63;;;8.40;99.90;;;;;;5078179;28;20664;-68
2023/12/10 01:11:42;;;;;;;17.05;4.35;;;8.40;99.90;;;;;;5051137;28;20167;-68
2023/12/10 01:14:08;;;;;;;18.95;4.07;;;8.30;99.90;;;;;;5049963;28;20062;-68
2023/12/10 01:16:34;;;;;;;18.98;3.88;;;8.30;99.90;;;;;;5070598;28;20036;-68
2023/12/10 01:19:01;;;;;;;20.17;3.40;;;8.30;99.90;;;;;;5049793;28;20097;-68
2023/12/10 01:21:26;;;;;;;17.73;2.92;;;8.20;99.90;;;;;;5067734;28;20083;-68
2023/12/10 01:23:54;;;;;;;17.10;3.17;;;8.20;99.90;;;;;;5068449;28;20134;-68
2023/12/10 01:26:23;;;;;;;22.70;3.75;;;8.20;99.90;;;;;;5070367;28;20491;-68
2023/12/10 01:28:49;;;;;;;19.98;3.55;;;8.10;99.90;;;;;;5050187;28;20093;-68
2023/12/10 01:31:15;;;;;;;21.40;3.63;;;8.10;99.90;;;;;;5066549;28;20040;-68
2023/12/10 01:33:41;;;;;;;19.88;4.22;;;8.00;99.90;;;;;;5070003;28;20164;-68
2023/12/10 01:36:07;;;;;;;19.85;3.88;;;8.10;99.90;;;;;;5050771;28;20047;-68
2023/12/10 01:38:34;;;;;;;22.90;3.85;;;8.00;99.90;;;;;;5050650;28;20498;-68
2023/12/10 01:41:00;;;;;;;20.83;4.80;;;8.00;99.90;;;;;;5058516;28;20047;-68
2023/12/10 01:43:25;;;;;;;18.00;3.15;;;8.00;99.90;;;;;;5069613;28;20076;-68
2023/12/10 01:45:53;;;;;;;17.65;3.13;;;8.10;99.90;;;;;;5066281;28;20044;-68
2023/12/10 01:48:23;;;;;;;18.02;3.47;;;8.00;99.90;;;;;;5050763;28;20151;-68
2023/12/10 01:50:50;;;;;;;23.63;3.90;;;8.00;99.90;;;;;;5051181;28;20051;-68
2023/12/10 01:53:16;;;;;;;17.95;2.83;;;8.00;99.90;;;;;;5049700;28;20040;-68
2023/12/10 01:55:43;;;;;;;19.80;3.65;;;8.00;99.90;;;;;;5049551;28;20051;-68
2023/12/10 01:58:09;;;;;;;34.22;5.57;;;8.00;99.90;;;;;;5052880;28;20052;-68
2023/12/10 02:00:36;;;;;;;26.17;4.38;;;8.00;99.90;;;;;;5068687;28;20078;-68
2023/12/10 02:03:05;;;;;;;31.13;5.35;;;8.00;99.90;;;;;;5052936;28;20044;-68
2023/12/10 02:05:31;;;;;;;16.70;2.92;;;8.00;99.90;;;;;;5039625;28;20080;-68
2023/12/10 02:07:57;;;;;;;30.40;4.53;;;8.00;99.90;;;;;;5054650;28;20142;-68
2023/12/10 02:10:22;;;;;;;20.55;3.75;;;7.90;99.90;;;;;;5053581;28;21157;-68
2023/12/10 02:12:52;;;;;;;23.92;4.45;;;7.90;99.90;;;;;;5051940;28;20044;-68
2023/12/10 02:15:21;;;;;;;28.98;3.88;;;7.90;99.90;;;;;;5080188;28;20047;-68
2023/12/10 02:17:48;;;;;;;19.33;4.00;;;8.00;99.90;;;;;;5070845;28;20063;-68
2023/12/10 02:20:15;;;;;;;26.08;4.30;;;7.90;99.90;;;;;;5052388;28;20044;-68
2023/12/10 02:22:50;;;;;;;28.85;5.05;;;7.90;99.90;;;;;;5052048;28;20051;-68
2023/12/10 02:25:22;;;;;;;24.70;4.43;;;8.00;99.90;;;;;;5071644;28;20485;-68
2023/12/10 02:27:48;;;;;;;22.98;3.95;;;7.90;99.90;;;;;;5052359;28;20048;-68
2023/12/10 02:30:14;;;;;;;23.52;4.20;;;7.90;99.90;;;;;;5071555;28;20058;-68
2023/12/10 02:32:40;;;;;;;26.02;4.60;;;7.90;99.90;;;;;;5057253;28;20044;-68
2023/12/10 02:35:06;;;;;;;25.70;4.25;;;8.00;99.90;;;;;;5071201;28;20032;-68
2023/12/10 02:37:32;;;;;;;20.15;3.45;;;8.00;99.90;;;;;;5053828;28;22079;-68
2023/12/10 02:39:58;;;;;;;23.35;4.20;;;7.70;99.90;;;;;;5068498;28;20123;-68
2023/12/10 02:42:23;;;;;;;24.80;4.50;;;7.90;99.90;;;;;;5071140;28;20044;-68
2023/12/10 02:44:49;;;;;;;25.08;5.40;;;7.90;99.90;;;;;;5057976;28;20044;-68
2023/12/10 02:47:15;;;;;;;20.52;3.85;;;7.90;99.90;;;;;;5079607;28;20390;-68
2023/12/10 02:49:40;;;;;;;23.80;4.72;;;7.90;99.90;;;;;;5062148;28;20493;-68
2023/12/10 02:52:06;;;;;;;21.25;4.10;;;7.90;99.90;;;;;;5071870;28;20063;-68
2023/12/10 02:54:32;;;;;;;20.52;3.42;;;7.90;99.90;;;;;;5036105;28;20054;-68
2023/12/10 02:56:57;;;;;;;19.80;3.53;;;7.90;99.90;;;;;;5069659;28;20052;-68
2023/12/10 02:59:23;;;;;;;25.55;4.30;;;7.90;99.90;;;;;;5047387;28;20421;-68
2023/12/10 03:01:49;;;;;;;24.25;3.58;;;7.90;99.90;;;;;;5049540;28;20044;-68
2023/12/10 03:04:14;;;;;;;23.08;4.38;;;8.00;99.90;;;;;;5070229;28;20097;-68
2023/12/10 03:06:40;;;;;;;21.42;4.13;;;8.00;99.90;;;;;;5066564;28;21741;-68
2023/12/10 03:09:05;;;;;;;25.02;4.47;;;8.00;99.90;;;;;;5069855;28;20445;-68
2023/12/10 03:11:31;;;;;;;21.63;3.70;;;8.00;99.90;;;;;;5073130;28;20559;-68
2023/12/10 03:13:57;;;;;;;27.08;5.68;;;8.00;99.90;;;;;;5052856;28;20058;-68
2023/12/10 03:16:22;;;;;;;22.63;3.33;;;8.00;99.90;;;;;;5066623;28;20036;-68
2023/12/10 03:18:48;;;;;;;19.90;3.67;;;7.90;99.90;;;;;;5069999;28;20051;-68
2023/12/10 03:21:14;;;;;;;21.33;3.65;;;8.00;99.90;;;;;;5052598;28;20105;-68
2023/12/10 03:23:39;;;;;;;24.48;3.70;;;8.00;99.90;;;;;;5051475;28;20059;-68
2023/12/10 03:26:05;;;;;;;25.85;4.05;;;8.00;99.90;;;;;;5052102;28;20036;-68
2023/12/10 03:28:31;;;;;;;17.17;3.17;;;8.00;99.90;;;;;;5051047;28;20040;-68
2023/12/10 03:30:56;;;;;;;25.63;4.32;;;8.00;99.90;;;;;;5049584;28;20040;-68
2023/12/10 03:33:22;;;;;;;22.50;3.67;;;7.90;99.90;;;;;;5051380;28;20036;-68
2023/12/10 03:35:48;;;;;;;16.83;3.15;;;7.90;99.90;;;;;;5052150;28;20058;-68
2023/12/10 03:38:13;;;;;;;18.92;3.70;;;7.90;99.90;;;;;;5050948;28;20044;-68
2023/12/10 03:40:39;;;;;;;18.65;2.60;;;7.90;99.90;;;;;;5072131;28;20046;-68
2023/12/10 03:43:04;;;;;;;17.38;3.88;;;7.90;99.90;;;;;;5053104;28;20510;-68
2023/12/10 03:45:31;;;;;;;15.45;2.35;;;7.90;99.90;;;;;;5054037;28;20040;-68
2023/12/10 03:47:57;;;;;;;17.05;2.92;;;7.80;99.90;;;;;;5050011;28;20075;-68
2023/12/10 03:50:23;;;;;;;17.60;3.33;;;7.80;99.90;;;;;;5053684;28;20703;-68
2023/12/10 03:52:48;;;;;;;16.40;2.50;;;7.80;99.90;;;;;;5071191;28;20044;-68
2023/12/10 03:55:14;;;;;;;12.55;2.35;;;7.80;99.90;;;;;;5039576;28;20033;-68
2023/12/10 03:57:40;;;;;;;13.15;1.92;;;7.90;99.90;;;;;;5071783;28;20040;-68
2023/12/10 04:00:07;;;;;;;12.07;1.90;;;7.90;99.90;;;;;;5078050;28;20390;-68
2023/12/10 04:02:33;;;;;;;16.05;1.55;;;7.90;99.90;;;;;;5053796;28;20048;-68
2023/12/10 04:04:58;;;;;;;15.05;3.05;;;7.90;99.90;;;;;;5050705;28;20080;-68
2023/12/10 04:07:25;;;;;;;16.90;2.40;;;7.90;99.90;;;;;;5045986;28;20072;-68
2023/12/10 04:09:51;;;;;;;10.93;1.45;;;7.90;99.90;;;;;;5054636;28;20047;-68
2023/12/10 04:12:16;;;;;;;11.73;1.95;;;7.90;99.90;;;;;;5055237;28;20033;-68
2023/12/10 04:14:46;;;;;;;16.83;2.30;;;7.90;99.90;;;;;;5079949;28;20044;-68
2023/12/10 04:17:12;;;;;;;13.02;2.17;;;8.00;99.90;;;;;;5054965;28;20064;-68
2023/12/10 04:19:37;;;;;;;9.60;1.50;;;8.00;99.90;;;;;;5068981;28;20048;-68
2023/12/10 04:22:03;;;;;;;9.27;1.60;;;8.00;99.90;;;;;;5071863;28;20064;-68
2023/12/10 04:24:29;;;;;;;8.23;1.63;;;8.00;99.90;;;;;;5070747;28;20079;-68
2023/12/10 04:26:54;;;;;;;12.63;1.95;;;8.10;99.90;;;;;;5058060;28;20080;-68
2023/12/10 04:29:20;;;;;;;10.73;1.80;;;8.10;99.90;;;;;;5074028;28;20056;-68
2023/12/10 04:31:46;;;;;;;11.20;1.33;;;8.10;99.90;;;;;;5071645;28;20104;-68
2023/12/10 04:34:12;;;;;;;11.80;1.75;;;8.20;99.90;;;;;;5054276;28;20120;-68
2023/12/10 04:36:37;;;;;;;13.70;1.45;;;8.20;99.90;;;;;;5052125;28;20048;-68
2023/12/10 04:39:03;;;;;;;13.52;2.72;;;8.20;99.90;;;;;;5070056;28;20040;-68
2023/12/10 04:41:29;;;;;;;13.98;2.05;;;8.20;99.90;;;;;;5069347;28;20040;-68
2023/12/10 04:43:54;;;;;;;11.77;2.10;;;8.20;99.90;;;;;;5059074;28;20038;-68
2023/12/10 04:46:20;;;;;;;13.15;2.80;;;8.20;99.90;;;;;;5058982;28;20035;-68
2023/12/10 04:48:45;;;;;;;13.18;2.28;;;8.20;99.90;;;;;;5060192;28;20051;-68
2023/12/10 04:51:11;;;;;;;18.48;2.47;;;8.20;99.90;;;;;;5074240;28;20043;-68
2023/12/10 04:53:37;;;;;;;16.23;3.15;;;8.10;99.90;;;;;;5056544;28;20069;-69
2023/12/10 04:56:03;;;;;;;15.68;2.50;;;8.20;99.90;;;;;;5076079;28;20031;-68
2023/12/10 04:58:29;;;;;;;12.38;2.03;;;8.20;99.90;;;;;;5062319;28;20045;-68
2023/12/10 05:00:55;;;;;;;18.38;3.10;;;8.20;99.90;;;;;;5058711;28;20093;-68
2023/12/10 05:03:20;;;;;;;17.83;2.58;;;8.20;99.90;;;;;;5057028;28;20063;-68
2023/12/10 05:05:46;;;;;;;14.57;1.88;;;8.20;99.90;;;;;;5076925;28;21194;-68
2023/12/10 05:08:12;;;;;;;12.27;2.33;;;8.20;99.90;;;;;;5054971;28;20047;-68
2023/12/10 05:10:38;;;;;;;13.85;2.45;;;8.20;99.90;;;;;;5051888;28;20040;-68
2023/12/10 05:13:03;;;;;;;12.35;1.77;;;8.20;99.90;;;;;;5070768;28;20048;-68
2023/12/10 05:15:29;;;;;;;10.57;2.00;;;8.20;99.90;;;;;;5056921;28;20044;-69
2023/12/10 05:17:54;;;;;;;13.90;2.05;;;8.20;99.90;;;;;;5073039;28;20036;-69
2023/12/10 05:20:20;;;;;;;12.05;1.52;;;8.20;99.90;;;;;;5056729;28;20045;-68
2023/12/10 05:22:46;;;;;;;14.73;1.85;;;8.20;99.90;;;;;;5055317;28;20394;-69
2023/12/10 05:25:12;;;;;;;12.85;1.90;;;8.20;99.90;;;;;;5055155;28;20430;-68
2023/12/10 05:27:37;;;;;;;10.15;1.58;;;8.30;99.90;;;;;;5072053;28;20052;-69
2023/12/10 05:30:03;;;;;;;12.23;2.95;;;8.30;99.90;;;;;;5081187;28;20521;-68
2023/12/10 05:32:29;;;;;;;8.20;1.63;;;8.30;99.90;;;;;;5063878;28;20036;-68
2023/12/10 05:34:55;;;;;;;12.15;1.50;;;8.30;99.90;;;;;;5065210;28;20050;-68
2023/12/10 05:37:20;;;;;;;10.95;1.85;;;8.40;99.90;;;;;;5082123;28;20079;-69
2023/12/10 05:39:46;;;;;;;14.70;1.48;;;8.40;99.90;;;;;;5089861;28;20513;-68
2023/12/10 05:42:12;;;;;;;8.40;1.92;;;8.30;99.90;;;;;;5090229;28;20044;-69
2023/12/10 05:44:37;;;;;;;6.78;1.33;;;8.40;99.90;;;;;;5078791;28;20049;-68
2023/12/10 05:47:03;;;;;;;13.65;1.70;;;8.40;99.90;;;;;;5078503;28;20036;-68
2023/12/10 05:49:29;;;;;;;10.00;1.33;;;8.40;99.90;;;;;;5081108;28;20072;-69
2023/12/10 05:51:55;;;;;;;11.23;1.58;;;8.40;99.90;;;;;;5061635;28;20495;-68
2023/12/10 05:54:20;;;;;;;13.93;2.10;;;8.40;99.90;;;;;;5077871;28;20039;-69
2023/12/10 05:56:46;;;;;;;13.93;1.95;;;8.40;99.90;;;;;;5078183;28;20036;-68
2023/12/10 05:59:12;;;;;;;16.95;2.88;;;8.40;99.90;;;;;;5091815;28;20051;-68
2023/12/10 06:01:38;;;;;;;15.68;2.45;;;8.40;99.90;;;;;;5077749;28;20064;-68
2023/12/10 06:04:04;;;;;;;15.30;1.77;;;8.40;99.90;;;;;;5090396;28;20384;-68
2023/12/10 06:06:29;;;;;;;16.23;2.45;;;8.40;99.90;;;;;;5060292;28;20089;-68
2023/12/10 06:08:55;;;;;;;15.05;2.53;;;8.40;99.90;;;;;;5076960;28;20051;-68
2023/12/10 06:11:21;;;;;;;15.20;2.53;;;8.50;99.90;;;;;;5092192;28;20040;-68
2023/12/10 06:13:47;;;;;;;15.25;2.60;;;8.40;99.90;;;;;;5045595;28;20502;-68
2023/12/10 06:16:13;;;;;;;17.02;3.10;;;8.40;99.90;;;;;;5067015;28;20028;-68
2023/12/10 06:18:39;;;;;;;17.42;2.53;;;8.40;99.90;;;;;;5057100;28;20040;-68
2023/12/10 06:21:05;;;;;;;12.95;2.58;;;8.40;99.90;;;;;;5055433;28;20043;-68
2023/12/10 06:23:31;;;;;;;18.13;3.85;;;8.40;99.90;;;;;;5059039;28;20040;-68
2023/12/10 06:25:56;;;;;;;25.92;3.95;;;8.50;99.90;;;;;;5077693;28;20096;-68
2023/12/10 06:28:22;;;;;;;21.30;4.47;;;8.50;99.90;;;;;;5075539;28;20040;-68
2023/12/10 06:30:47;;;;;;;27.77;3.67;;;8.50;99.90;;;;;;5059091;28;20085;-68
2023/12/10 06:33:13;;;;;;;23.58;5.25;;;8.50;99.90;;;;;;5059130;28;20040;-68
2023/12/10 06:35:39;;;;;;;29.85;4.55;;;8.50;99.90;;;;;;5078401;28;20040;-68
2023/12/10 06:38:04;;;;;;;14.75;3.08;;;8.60;99.90;;;;;;5059256;28;20139;-68
2023/12/10 06:40:30;;;;;;;23.30;3.80;;;8.50;99.90;;;;;;5062145;28;20131;-68
2023/12/10 06:42:56;;;;;;;16.92;3.20;;;8.60;99.90;;;;;;5078273;28;20067;-68
2023/12/10 06:45:22;;;;;;;21.88;3.63;;;8.50;99.90;;;;;;5058304;28;20043;-68
2023/12/10 06:47:47;;;;;;;19.67;3.38;;;8.60;99.90;;;;;;5059414;28;20044;-68
2023/12/10 06:50:13;;;;;;;21.15;4.38;;;8.60;99.90;;;;;;5055361;28;20036;-68
2023/12/10 06:52:39;;;;;;;24.00;3.40;;;8.60;99.90;;;;;;5056783;28;20074;-68
2023/12/10 06:55:04;;;;;;;32.05;4.95;;;8.60;99.90;;;;;;5058929;28;20489;-68
2023/12/10 06:57:30;;;;;;;21.10;3.72;;;8.50;99.90;;;;;;5072838;28;21842;-69
2023/12/10 06:59:56;;;;;;;37.33;4.45;;;8.60;99.90;;;;;;5051254;28;20044;-68
2023/12/10 07:02:22;;;;;;;30.55;4.28;;;8.60;99.90;;;;;;5051933;28;20040;-68
2023/12/10 07:04:47;;;;;;;25.60;3.53;;;8.60;99.90;;;;;;5053358;28;20048;-68
2023/12/10 07:07:13;;;;;;;27.48;3.58;;;8.60;99.90;;;;;;5051403;28;20055;-68
2023/12/10 07:09:39;;;;;;;29.67;4.28;;;8.60;99.90;;;;;;5049864;28;20095;-68
2023/12/10 07:12:05;;;;;;;27.52;4.28;;;8.60;99.90;;;;;;5068727;28;20057;-68
2023/12/10 07:14:30;;;;;;;27.73;4.45;;;8.50;99.90;;;;;;5056341;28;20043;-68
2023/12/10 07:16:56;;;;;;;28.63;3.92;;;8.50;99.90;;;;;;5053601;28;20109;-68
2023/12/10 07:19:23;;;;;;;19.83;3.95;;;8.60;99.90;;;;;;5049880;28;20044;-68
2023/12/10 07:21:52;;;;;;;27.92;3.42;;;8.50;99.90;;;;;;5068452;28;20048;-68
2023/12/10 07:24:19;;;;;;;22.33;3.50;;;8.60;99.90;;;;;;5053144;28;20135;-68
2023/12/10 07:26:45;;;;;;;22.88;3.05;;;8.60;99.90;;;;;;5053351;28;20048;-68
2023/12/10 07:29:11;;;;;;;20.30;3.53;;;8.50;99.90;;;;;;5050525;28;20046;-67
2023/12/10 07:31:37;;;;;;;17.75;2.83;;;8.50;99.90;;;;;;5070762;28;20046;-68
2023/12/10 07:34:02;;;;;;;16.10;2.10;;;8.50;99.90;;;;;;5053965;28;20039;-69
2023/12/10 07:36:28;;;;;;;17.35;2.63;;;8.50;99.90;;;;;;5067724;28;20085;-68
2023/12/10 07:38:54;;;;;;;18.08;3.03;;;8.50;99.90;;;;;;5062206;28;20040;-68
2023/12/10 07:41:19;;;;;;;14.63;2.45;;;8.50;99.90;;;;;;5078361;28;20071;-68
2023/12/10 07:43:45;;;;;;;18.88;2.15;;;8.50;99.90;;;;;;5068845;28;20122;-68
2023/12/10 07:46:11;;;;;;;20.50;3.10;;;8.50;99.90;;;;;;5069899;28;20051;-68
2023/12/10 07:48:37;;;;;;;15.45;2.50;;;8.40;99.90;;;;;;5067028;28;20044;-68
2023/12/10 07:51:03;;;;;;;15.50;2.55;;;8.40;99.90;;;;;;5067541;28;20039;-68
2023/12/10 07:53:28;;;;;;;18.42;3.22;;;8.40;99.90;;;;;;5049682;28;20062;-68
2023/12/10 07:55:54;;;;;;;20.70;2.70;;;8.40;99.90;;;;;;5066927;28;20945;-68
2023/12/10 07:58:22;;;;;;;20.60;2.78;;;8.40;99.90;;;;;;5049718;28;20048;-68
2023/12/10 08:00:48;;;;;;;20.30;3.20;;;8.40;99.90;;;;;;5067593;28;20055;-68
2023/12/10 08:03:14;;;;;;;18.38;3.45;;;8.40;99.90;;;;;;5039902;28;20153;-68
2023/12/10 08:05:40;;;;;;;22.50;3.15;;;8.30;99.90;;;;;;5065696;28;20050;-68
2023/12/10 08:08:06;;;;;;;22.88;3.67;;;8.30;99.90;;;;;;5051434;28;20036;-68
2023/12/10 08:10:32;;;;;;;24.67;3.17;;;8.40;99.90;;;;;;5066492;28;20101;-68
2023/12/10 08:12:58;;;;;;;18.88;3.05;;;8.30;99.90;;;;;;5052560;28;20039;-68
2023/12/10 08:15:24;;;;;;;22.90;2.75;;;8.30;99.90;;;;;;5052794;28;20138;-68
2023/12/10 08:17:50;;;;;;;15.95;2.95;;;8.30;99.90;;;;;;5064085;28;20105;-70
2023/12/10 08:20:16;;;;;;;20.10;2.95;;;8.30;99.90;;;;;;5049095;28;20052;-68
2023/12/10 08:22:41;;;;;;;17.38;3.42;;;8.30;99.90;;;;;;5067331;28;20051;-68
2023/12/10 08:25:07;;;;;;;15.52;2.75;;;8.30;99.90;;;;;;5057883;28;20323;-68
2023/12/10 08:27:33;;;;;;;18.00;2.67;;;8.30;99.90;;;;;;5067825;28;20040;-68
2023/12/10 08:29:58;;;;;;;13.63;2.78;;;8.40;99.90;;;;;;5074430;28;20035;-68
2023/12/10 08:32:24;;;;;;;15.93;2.40;;;8.30;99.90;;;;;;5037897;28;20040;-68
2023/12/10 08:34:50;;;;;;;16.27;2.05;;;8.30;99.90;;;;;;5079565;27;20040;-68
2023/12/10 08:37:16;;;;;;;22.17;2.50;;;8.30;99.90;;;;;;5055894;28;20055;-68
2023/12/10 08:39:42;;;;;;;19.10;3.22;;;8.30;99.90;;;;;;5055580;28;20052;-68
2023/12/10 08:42:08;;;;;;;17.60;3.17;;;8.30;99.90;;;;;;5054693;28;20123;-68
2023/12/10 08:44:34;;;;;;;13.27;2.33;;;8.30;99.90;;;;;;5077544;28;20062;-68
2023/12/10 08:47:00;;;;;;;18.15;2.88;;;8.30;99.90;;;;;;5069225;28;20044;-68
2023/12/10 08:49:26;;;;;;;19.02;2.78;;;8.30;99.90;;;;;;5070102;28;20477;-68
2023/12/10 08:51:52;;;;;;;24.08;2.85;;;8.30;99.90;;;;;;5071135;28;20036;-68
2023/12/10 08:54:18;;;;;;;21.65;3.47;;;8.30;99.90;;;;;;5082446;28;20040;-68
2023/12/10 08:56:44;;;;;;;26.42;3.63;;;8.30;99.90;;;;;;5070314;28;20126;-68
2023/12/10 08:59:10;;;;;;;21.30;2.75;;;8.30;99.90;;;;;;5073322;28;20040;-68
2023/12/10 09:01:35;;;;;;;16.63;2.55;;;8.40;99.90;;;;;;5073778;28;20384;-68
2023/12/10 09:04:03;;;;;;;18.00;3.20;;;8.40;99.90;;;;;;5074162;28;20081;-71
2023/12/10 09:06:29;;;;;;;23.08;3.05;;;8.40;99.90;;;;;;5061755;28;20055;-68
2023/12/10 09:08:55;;;;;;;16.70;2.38;;;8.40;99.90;;;;;;5054259;28;20091;-67
2023/12/10 09:11:21;;;;;;;20.23;2.85;;;8.40;99.90;;;;;;5054962;28;20142;-69
2023/12/10 09:13:46;;;;;;;16.92;2.78;;;8.40;99.90;;;;;;5052826;28;20048;-66
2023/12/10 09:16:14;;;;;;;18.73;3.03;;;8.40;99.90;;;;;;5073376;28;20037;-66
2023/12/10 09:18:40;;;;;;;24.67;4.30;;;8.50;99.90;;;;;;5081581;28;20086;-67
2023/12/10 09:23:41;;;;;;;18.55;2.50;;;8.50;99.90;;;;;;5041231;23;20060;-67
2023/12/10 09:26:07;;;;;;;23.10;3.53;;;8.50;99.90;;;;;;5012860;28;20041;-67
2023/12/10 09:28:33;;;;;;;19.42;3.20;;;8.50;99.90;;;;;;5010993;28;20049;-66
2023/12/10 09:30:59;;;;;;;19.25;3.85;;;8.50;99.90;;;;;;5007631;28;20052;-67
2023/12/10 09:33:25;;;;;;;18.50;4.65;;;8.40;99.90;;;;;;5011586;28;20037;-66
2023/12/10 09:35:50;;;;;;;23.65;4.72;;;8.40;99.90;;;;;;5011660;28;20045;-66
2023/12/10 09:38:16;;;;;;;26.10;3.97;;;8.40;99.90;;;;;;5009709;28;20974;-67
2023/12/10 09:40:42;;;;;;;25.80;3.83;;;8.40;99.90;;;;;;5035373;28;20044;-67
2023/12/10 09:43:07;;;;;;;30.77;5.53;;;8.40;99.90;;;;;;5033474;28;20045;-67
2023/12/10 09:45:33;;;;;;;30.92;4.53;;;8.40;99.90;;;;;;5041555;28;20037;-66
2023/12/10 09:47:59;;;;;;;27.98;4.55;;;8.40;99.90;;;;;;5033482;28;20052;-67
2023/12/10 09:50:25;;;;;;;26.80;5.05;;;8.50;99.90;;;;;;5014012;28;20255;-71
2023/12/10 09:52:51;;;;;;;30.73;5.00;;;8.40;99.90;;;;;;5011937;28;20045;-67
2023/12/10 09:55:17;;;;;;;26.20;5.03;;;8.50;99.90;;;;;;5013299;28;20049;-68
2023/12/10 09:57:43;;;;;;;33.95;5.95;;;8.50;99.90;;;;;;5013283;28;20041;-67
2023/12/10 10:00:10;;;;;;;37.58;6.35;;;8.50;99.90;;;;;;5009666;28;20628;-67
2023/12/10 10:02:36;;;;;;;37.25;5.65;;;8.50;99.90;;;;;;5010272;28;20073;-67
2023/12/10 10:05:05;;;;;;;31.50;4.97;;;8.50;99.90;;;;;;5008820;28;20550;-67
2023/12/10 10:07:31;;;;;;;33.53;5.90;;;8.50;99.90;;;;;;5003970;28;20534;-67
2023/12/10 10:09:57;;;;;;;25.77;5.40;;;8.50;99.90;;;;;;5012182;28;20045;-67
2023/12/10 10:12:29;;;;;;;35.92;5.88;;;8.50;99.90;;;;;;5008862;28;20128;-67
2023/12/10 10:14:56;;;;;;;27.85;4.80;;;8.50;99.90;;;;;;5021484;28;20037;-67
2023/12/10 10:17:29;;;;;;;38.20;5.53;;;8.50;99.90;;;;;;5016599;28;20041;-67
2023/12/10 10:19:55;;;;;;;36.78;5.47;;;8.50;99.90;;;;;;5013652;28;20041;-67
2023/12/10 10:22:23;;;;;;;35.60;4.97;;;8.50;99.90;;;;;;5013335;28;20038;-67
2023/12/10 10:24:51;;;;;;;41.65;5.80;;;8.50;99.90;;;;;;5012861;28;20041;-67
2023/12/10 10:27:18;;;;;;;36.20;5.43;;;8.60;99.90;;;;;;5011801;28;20085;-67
2023/12/10 10:29:44;;;;;;;32.20;5.35;;;8.60;99.90;;;;;;4996489;28;20044;-67
2023/12/10 10:32:16;;;;;;;33.42;6.70;;;8.60;99.90;;;;;;5010137;28;20604;-67
2023/12/10 10:34:46;;;;;;;31.90;4.75;;;8.70;99.90;;;;;;5013375;28;20534;-67
2023/12/10 10:37:15;;;;;;;31.83;5.30;;;8.60;99.90;;;;;;5012646;28;20045;-67
2023/12/10 10:39:42;;;;;;;24.35;5.43;;;8.70;99.90;;;;;;5010755;28;20044;-67
2023/12/10 10:42:09;;;;;;;34.40;5.68;;;8.70;99.90;;;;;;5009328;28;20049;-67
2023/12/10 10:44:39;;;;;;;28.55;5.28;;;8.70;99.90;;;;;;4993604;28;20183;-67
2023/12/10 10:47:08;;;;;;;32.58;5.78;;;8.70;99.90;;;;;;5010532;28;20077;-67
2023/12/10 10:49:44;;;;;;;27.15;4.25;;;8.70;99.90;;;;;;5024684;28;20111;-67
2023/12/10 10:52:15;;;;;;;31.33;4.72;;;8.80;99.90;;;;;;4995137;28;20099;-67
2023/12/10 10:54:41;;;;;;;28.70;4.65;;;8.80;99.90;;;;;;5025768;28;20042;-67
2023/12/10 10:57:07;;;;;;;25.58;4.47;;;8.70;99.90;;;;;;5015232;28;20092;-67
2023/12/10 10:59:34;;;;;;;35.45;5.10;;;8.70;99.90;;;;;;4992548;28;20095;-67
2023/12/10 11:02:08;;;;;;;29.63;5.13;;;8.80;99.90;;;;;;5012644;28;21899;-67
2023/12/10 11:04:38;;;;;;;23.48;3.97;;;8.80;99.90;;;;;;5010843;28;20160;-67
2023/12/10 11:07:05;;;;;;;26.65;5.05;;;8.80;99.90;;;;;;5010601;28;21563;-67
2023/12/10 11:09:32;;;;;;;22.05;4.25;;;8.80;99.90;;;;;;5009485;28;20053;-67
2023/12/10 11:11:58;;;;;;;23.65;4.00;;;8.80;99.90;;;;;;5010363;28;20049;-67
2023/12/10 11:14:25;;;;;;;27.10;4.68;;;8.70;99.90;;;;;;5030877;28;20037;-67
2023/12/10 11:17:09;;;;;;;22.23;3.55;;;8.70;99.90;;;;;;5020996;28;20127;-67
2023/12/10 11:19:36;;;;;;;28.60;4.38;;;8.80;99.90;;;;;;5012490;28;20099;-67
2023/12/10 11:22:02;;;;;;;26.83;5.28;;;8.80;99.90;;;;;;5012997;28;20124;-67
2023/12/10 11:24:28;;;;;;;24.85;4.57;;;8.80;99.90;;;;;;5010999;28;20056;-67
2023/12/10 11:26:55;;;;;;;23.23;4.90;;;8.80;99.90;;;;;;5017892;28;20038;-67
2023/12/10 11:29:20;;;;;;;26.92;4.57;;;8.90;99.90;;;;;;5019639;28;20046;-66
2023/12/10 11:31:46;;;;;;;17.65;3.88;;;8.90;99.90;;;;;;5010154;28;20042;-67
2023/12/10 11:34:12;;;;;;;32.67;5.25;;;9.00;99.90;;;;;;5011899;28;20038;-69
2023/12/10 11:36:38;;;;;;;23.55;5.25;;;9.20;99.90;;;;;;5007384;28;20052;-68
2023/12/10 11:39:12;;;;;;;25.13;4.40;;;9.20;99.90;;;;;;5023254;28;20056;-67
2023/12/10 11:41:40;;;;;;;18.17;4.13;;;9.20;99.90;;;;;;5004803;28;20160;-67
2023/12/10 11:44:05;;;;;;;15.85;4.13;;;9.30;99.90;;;;;;5008325;28;20037;-67
2023/12/10 11:46:32;;;;;;;16.13;3.13;;;9.20;99.90;;;;;;5007654;28;20573;-67
2023/12/10 11:48:58;;;;;;;23.90;3.38;;;9.10;99.90;;;;;;5008463;28;20112;-67
2023/12/10 11:51:23;;;;;;;18.90;3.75;;;9.10;99.90;;;;;;5009338;28;20041;-67
2023/12/10 11:53:50;;;;;;;21.20;3.85;;;9.10;99.90;;;;;;5007548;28;20096;-67
2023/12/10 11:56:15;;;;;;;20.48;3.70;;;9.00;99.90;;;;;;5007418;28;20056;-67
2023/12/10 11:58:45;;;;;;;25.42;4.53;;;9.00;99.90;;;;;;5007564;28;20057;-67
2023/12/10 12:01:10;;;;;;;26.17;4.25;;;9.00;99.90;;;;;;5006100;28;20064;-67
2023/12/10 12:03:36;;;;;;;27.38;5.13;;;9.00;99.90;;;;;;5010491;28;20057;-67
2023/12/10 12:06:04;;;;;;;15.63;3.28;;;8.90;99.90;;;;;;5009463;28;20506;-67
2023/12/10 12:08:30;;;;;;;21.08;4.30;;;9.00;99.90;;;;;;5008540;28;20087;-67
2023/12/10 12:10:57;;;;;;;29.50;5.72;;;8.90;99.90;;;;;;5006124;28;21626;-67
2023/12/10 12:13:24;;;;;;;19.95;4.07;;;8.90;99.90;;;;;;5009389;28;20585;-67
2023/12/10 12:15:51;;;;;;;27.52;3.83;;;8.90;99.90;;;;;;5004583;28;21711;-67
2023/12/10 12:18:17;;;;;;;24.25;3.72;;;8.90;99.90;;;;;;5010292;28;20053;-67
2023/12/10 12:20:44;;;;;;;22.40;3.45;;;9.00;99.90;;;;;;5007135;28;20050;-67
2023/12/10 12:23:10;;;;;;;21.23;4.60;;;8.90;99.90;;;;;;4998991;28;20065;-67
2023/12/10 12:25:38;;;;;;;25.50;4.05;;;8.90;99.90;;;;;;5003758;28;20049;-67
2023/12/10 12:28:07;;;;;;;24.10;4.25;;;8.90;99.90;;;;;;5008256;28;20137;-67
2023/12/10 12:30:34;;;;;;;18.98;3.75;;;9.00;99.90;;;;;;5007534;28;20487;-67
2023/12/10 12:33:00;;;;;;;37.85;5.07;;;9.10;99.90;;;;;;5007115;28;20064;-67
2023/12/10 12:35:26;;;;;;;23.35;4.45;;;9.00;99.90;;;;;;5008822;28;20649;-67
2023/12/10 12:37:51;;;;;;;23.92;5.00;;;9.10;99.90;;;;;;5009146;28;20041;-67
2023/12/10 12:40:18;;;;;;;22.33;3.53;;;9.10;99.90;;;;;;5006781;28;20057;-67
2023/12/10 12:42:43;;;;;;;20.13;4.10;;;9.10;99.90;;;;;;5008836;28;20049;-67
2023/12/10 12:45:09;;;;;;;16.08;3.30;;;9.10;99.90;;;;;;5006629;28;20076;-67